Time;durP1;ratioP1;P1;durP2;ratioP2;P2;SDS_P1;SDS_P2;PMS_P1;PMS_P2;Temp;Humidity;BMP_temperature;BMP_pressure;BME280_temperature;BME280_humidity;BME280_pressure;Samples;Min_cycle;Max_cycle;Signal;HPM_P1;HPM_P2
2023/08/12 00:01:37;;;;;;;4.80;4.40;;;;;;;20.95;100.00;100427.16;4998309;28;20234;-77
2023/08/12 00:04:03;;;;;;;4.80;4.30;;;;;;;20.97;100.00;100422.69;4985537;28;20583;-78
2023/08/12 00:06:28;;;;;;;4.90;4.53;;;;;;;20.99;100.00;100415.56;4980756;28;20189;-77
2023/08/12 00:08:54;;;;;;;4.80;4.50;;;;;;;21.01;100.00;100416.34;4985298;28;20277;-76
2023/08/12 00:11:19;;;;;;;5.27;4.67;;;;;;;21.02;100.00;100420.69;4983816;28;20216;-77
2023/08/12 00:13:44;;;;;;;4.70;4.40;;;;;;;21.04;100.00;100420.59;4982354;28;20185;-79
2023/08/12 00:16:10;;;;;;;5.83;5.20;;;;;;;21.05;100.00;100415.25;4986400;28;20250;-78
2023/08/12 00:18:36;;;;;;;5.73;5.10;;;;;;;21.04;100.00;100407.44;5015308;28;20180;-78
2023/08/12 00:21:12;;;;;;;6.23;5.50;;;;;;;21.04;100.00;100410.06;4990748;28;20199;-77
2023/08/12 00:23:43;;;;;;;5.70;5.20;;;;;;;21.01;100.00;100409.28;4987041;28;20228;-79
2023/08/12 00:26:08;;;;;;;5.67;5.27;;;;;;;21.01;100.00;100401.41;5000638;28;20189;-77
2023/08/12 00:28:37;;;;;;;4.83;4.43;;;;;;;21.02;100.00;100400.47;4990632;28;20213;-78
2023/08/12 00:31:02;;;;;;;4.70;4.30;;;;;;;21.02;100.00;100389.13;4984663;28;20207;-78
2023/08/12 00:33:28;;;;;;;4.63;4.30;;;;;;;21.02;100.00;100389.94;4985341;28;20197;-77
2023/08/12 00:35:54;;;;;;;5.10;4.70;;;;;;;21.04;100.00;100389.03;4983732;28;20732;-77
2023/08/12 00:38:19;;;;;;;4.70;4.40;;;;;;;21.05;100.00;100380.19;4988686;28;20196;-77
2023/08/12 00:40:48;;;;;;;5.93;5.10;;;;;;;21.04;100.00;100391.66;4991340;28;20197;-76
2023/08/12 00:43:13;;;;;;;5.57;4.90;;;;;;;21.00;100.00;100386.53;4986967;28;20212;-77
2023/08/12 00:45:38;;;;;;;6.33;5.27;;;;;;;20.98;100.00;100382.31;4988876;28;20237;-77
2023/08/12 00:48:04;;;;;;;6.03;5.40;;;;;;;20.95;100.00;100390.34;4986618;28;20712;-77
2023/08/12 00:50:30;;;;;;;5.57;5.10;;;;;;;20.91;100.00;100387.03;4989211;28;20192;-78
2023/08/12 00:52:56;;;;;;;5.53;5.10;;;;;;;20.89;100.00;100388.00;4986490;28;20209;-77
2023/08/12 00:55:22;;;;;;;5.53;5.07;;;;;;;20.86;100.00;100395.16;4984095;28;20199;-77
2023/08/12 00:57:47;;;;;;;6.60;5.90;;;;;;;20.83;100.00;100403.19;4988483;28;20292;-78
2023/08/12 01:00:14;;;;;;;5.77;5.27;;;;;;;20.82;100.00;100405.88;4992103;28;20204;-78
2023/08/12 01:02:40;;;;;;;6.63;5.40;;;;;;;20.78;100.00;100407.81;4988583;28;20215;-77
2023/08/12 01:05:08;;;;;;;5.70;5.20;;;;;;;20.76;100.00;100411.47;4982201;28;20188;-78
2023/08/12 01:07:34;;;;;;;5.70;5.30;;;;;;;20.75;100.00;100410.59;4987319;28;20258;-77
2023/08/12 01:09:59;;;;;;;5.27;4.87;;;;;;;20.75;100.00;100415.84;4997352;28;20196;-77
2023/08/12 01:12:31;;;;;;;5.33;4.90;;;;;;;20.76;100.00;100416.72;4992969;28;20254;-77
2023/08/12 01:15:29;;;;;;;5.60;5.20;;;;;;;20.75;100.00;100422.88;4976600;28;20192;-76
2023/08/12 01:17:58;;;;;;;6.73;5.50;;;;;;;20.74;100.00;100421.19;4989146;28;20216;-77
2023/08/12 01:20:26;;;;;;;5.43;5.03;;;;;;;20.71;100.00;100423.03;4980442;28;20602;-76
2023/08/12 01:23:07;;;;;;;5.20;4.80;;;;;;;20.74;100.00;100421.19;4991383;28;20951;-76
2023/08/12 01:25:32;;;;;;;4.33;3.93;;;;;;;20.77;100.00;100421.91;4988506;28;20271;-77
2023/08/12 01:27:58;;;;;;;4.83;4.43;;;;;;;;;;4989292;28;20244;-77
2023/08/12 01:30:23;;;;;;;4.30;4.00;;;;;;;20.87;100.00;100430.19;4990091;28;20276;-77
2023/08/12 01:33:08;;;;;;;6.07;4.37;;;;;;;20.93;100.00;100426.38;4993863;28;20211;-76
2023/08/12 01:35:39;;;;;;;4.30;4.00;;;;;;;20.97;100.00;100418.25;4985474;28;20188;-78
2023/08/12 01:38:08;;;;;;;4.67;4.27;;;;;;;21.02;100.00;100420.69;4988605;28;21115;-78
2023/08/12 01:40:35;;;;;;;4.30;4.00;;;;;;;21.06;100.00;100416.13;4991025;28;20657;-78
2023/08/12 01:43:03;;;;;;;4.27;3.97;;;;;;;21.09;100.00;100424.69;4989647;28;20216;-78
2023/08/12 01:45:31;;;;;;;3.57;3.37;;;;;;;21.12;100.00;100427.19;4984779;28;20193;-76
2023/08/12 01:47:57;;;;;;;4.27;3.97;;;;;;;21.14;100.00;100433.22;4990374;28;20224;-77
2023/08/12 01:50:22;;;;;;;4.37;4.00;;;;;;;21.16;100.00;100438.38;4992645;28;20787;-77
2023/08/12 01:52:48;;;;;;;3.93;3.70;;;;;;;21.17;100.00;100434.81;4986464;28;21172;-77
2023/08/12 01:55:13;;;;;;;4.80;4.40;;;;;;;21.16;100.00;100431.34;4987531;28;20203;-75
2023/08/12 01:57:38;;;;;;;4.70;4.40;;;;;;;21.16;100.00;100436.63;4985804;28;20327;-76
2023/08/12 02:00:08;;;;;;;4.43;4.13;;;;;;;21.16;100.00;100444.53;4981604;28;20716;-77
2023/08/12 02:02:33;;;;;;;4.50;4.13;;;;;;;21.17;100.00;100442.72;4993261;28;20216;-77
2023/08/12 02:04:58;;;;;;;4.27;3.93;;;;;;;21.18;100.00;100433.91;4989645;28;20300;-76
2023/08/12 02:07:26;;;;;;;4.23;3.93;;;;;;;21.18;100.00;100439.16;4988605;28;20275;-78
2023/08/12 02:09:52;;;;;;;4.37;4.07;;;;;;;21.20;100.00;100439.06;4989293;28;20230;-76
2023/08/12 02:12:17;;;;;;;5.20;4.70;;;;;;;21.21;100.00;100439.00;4995270;28;20247;-77
2023/08/12 02:14:45;;;;;;;5.17;4.77;;;;;;;21.23;100.00;100426.63;4991348;28;20192;-78
2023/08/12 02:17:11;;;;;;;4.53;4.23;;;;;;;21.26;100.00;100423.81;5010863;28;20287;-78
2023/08/12 02:19:36;;;;;;;4.80;4.40;;;;;;;21.30;100.00;100416.63;4990956;28;20300;-78
2023/08/12 02:22:03;;;;;;;4.40;4.10;;;;;;;21.34;100.00;100418.16;4992416;28;20751;-76
2023/08/12 02:24:29;;;;;;;4.87;4.37;;;;;;;21.37;100.00;100420.63;4980042;28;20240;-79
2023/08/12 02:26:54;;;;;;;6.23;4.50;;;;;;;21.39;100.00;100418.78;4986837;28;20202;-76
2023/08/12 02:29:19;;;;;;;5.00;4.60;;;;;;;21.41;100.00;100426.59;4989404;28;20302;-77
2023/08/12 02:31:45;;;;;;;4.20;3.90;;;;;;;21.42;100.00;100423.03;4986680;28;20243;-78
2023/08/12 02:34:10;;;;;;;4.50;4.20;;;;;;;21.43;100.00;100416.81;5005600;28;20204;-79
2023/08/12 02:36:36;;;;;;;5.20;4.80;;;;;;;21.43;100.00;100420.31;4986997;28;20569;-77
2023/08/12 02:39:01;;;;;;;4.20;3.90;;;;;;;21.43;100.00;100415.06;4989728;28;20261;-77
2023/08/12 02:41:27;;;;;;;5.57;5.07;;;;;;;21.45;100.00;100415.84;4996992;28;20215;-76
2023/08/12 02:43:52;;;;;;;5.27;4.87;;;;;;;21.46;100.00;100412.28;4994307;28;20781;-76
2023/08/12 02:46:18;;;;;;;4.60;4.20;;;;;;;21.47;100.00;100406.06;4993847;28;20193;-77
2023/08/12 02:48:43;;;;;;;4.60;4.20;;;;;;;21.50;100.00;100409.44;5002025;28;20706;-79
2023/08/12 02:51:09;;;;;;;4.30;4.00;;;;;;;21.51;100.00;100393.59;5004107;28;20198;-77
2023/08/12 02:53:35;;;;;;;4.10;3.80;;;;;;;21.53;100.00;100404.03;4990713;28;20567;-76
2023/08/12 02:56:00;;;;;;;4.50;4.10;;;;;;;21.55;100.00;100400.41;4995910;28;20188;-77
2023/08/12 02:58:25;;;;;;;4.50;4.20;;;;;;;21.56;100.00;100394.19;4995699;28;20645;-77
2023/08/12 03:00:51;;;;;;;4.37;3.97;;;;;;;21.57;100.00;100392.41;4987896;28;20189;-77
2023/08/12 03:03:16;;;;;;;4.00;3.70;;;;;;;21.58;100.00;100399.38;4986857;28;20214;-76
2023/08/12 03:05:45;;;;;;;4.20;3.90;;;;;;;21.60;100.00;100392.28;4986516;28;20596;-78
2023/08/12 03:08:10;;;;;;;4.10;3.80;;;;;;;21.60;100.00;100387.84;4981769;28;20217;-77
2023/08/12 03:10:35;;;;;;;4.43;4.03;;;;;;;21.61;100.00;100378.19;4982790;28;20256;-78
2023/08/12 03:13:01;;;;;;;4.50;4.10;;;;;;;21.62;100.00;100372.00;4977790;28;20221;-77
2023/08/12 03:15:26;;;;;;;5.37;4.87;;;;;;;21.64;100.00;100375.38;4983872;28;20292;-78
2023/08/12 03:17:51;;;;;;;5.33;4.83;;;;;;;21.65;100.00;100368.31;4987857;28;20200;-76
2023/08/12 03:20:17;;;;;;;4.93;4.53;;;;;;;21.65;100.00;100371.81;4984567;28;20204;-77
2023/08/12 03:22:42;;;;;;;4.23;3.93;;;;;;;21.65;100.00;100371.81;4981105;28;20232;-76
2023/08/12 03:25:08;;;;;;;4.23;3.93;;;;;;;21.65;100.00;100374.44;4984678;28;20205;-78
2023/08/12 03:27:33;;;;;;;4.43;4.13;;;;;;;21.66;100.00;100373.50;4988714;28;20295;-79
2023/08/12 03:29:59;;;;;;;3.73;3.43;;;;;;;21.65;100.00;100374.44;4987002;28;20197;-77
2023/08/12 03:32:25;;;;;;;4.20;3.90;;;;;;;21.65;100.00;100370.97;4997252;28;20207;-77
2023/08/12 03:34:51;;;;;;;3.97;3.67;;;;;;;21.66;100.00;100378.78;4986992;28;20189;-78
2023/08/12 03:37:16;;;;;;;4.60;4.20;;;;;;;21.64;100.00;100375.38;4987447;28;20719;-77
2023/08/12 03:39:41;;;;;;;4.63;4.23;;;;;;;21.64;100.00;100371.91;4982453;28;20201;-77
2023/08/12 03:42:06;;;;;;;4.33;4.03;;;;;;;21.61;100.00;100375.56;4985151;28;20217;-79
2023/08/12 03:44:37;;;;;;;4.90;4.50;;;;;;;21.60;100.00;100377.31;4982496;28;20198;-79
2023/08/12 03:47:03;;;;;;;4.10;3.80;;;;;;;21.58;100.00;100379.16;4988204;28;20606;-77
2023/08/12 03:49:28;;;;;;;4.40;4.00;;;;;;;21.57;100.00;100372.19;4985833;28;20223;-76
2023/08/12 03:51:53;;;;;;;3.60;3.30;;;;;;;21.56;100.00;100369.66;4982319;28;20705;-77
2023/08/12 03:54:21;;;;;;;3.70;3.30;;;;;;;21.54;100.00;100368.88;4979678;28;21574;-77
2023/08/12 03:56:47;;;;;;;3.97;3.67;;;;;;;21.53;100.00;100365.41;5001634;28;20896;-78
2023/08/12 03:59:12;;;;;;;4.57;4.27;;;;;;;21.53;100.00;100375.06;4984374;28;20188;-76
2023/08/12 04:01:40;;;;;;;4.27;3.97;;;;;;;21.53;100.00;100378.56;4984827;28;20216;-79
2023/08/12 04:04:05;;;;;;;4.00;3.70;;;;;;;21.53;100.00;100369.81;4985085;28;20197;-77
2023/08/12 04:06:31;;;;;;;3.80;3.60;;;;;;;21.52;100.00;100371.59;4986806;28;20192;-77
2023/08/12 04:08:56;;;;;;;3.63;3.33;;;;;;;21.52;100.00;100371.59;4983938;28;20213;-77
2023/08/12 04:11:21;;;;;;;3.83;3.53;;;;;;;21.50;100.00;100370.81;4983911;28;20223;-78
2023/08/12 04:13:47;;;;;;;3.90;3.50;;;;;;;21.48;100.00;100365.63;4994496;28;20193;-79
2023/08/12 04:16:12;;;;;;;3.77;3.47;;;;;;;21.50;100.00;100365.56;4996408;28;20183;-77
2023/08/12 04:18:40;;;;;;;3.67;3.37;;;;;;;21.49;100.00;100366.50;4987114;28;20184;-77
2023/08/12 04:21:05;;;;;;;3.80;3.50;;;;;;;21.48;100.00;100372.69;4983642;28;20627;-77
2023/08/12 04:23:31;;;;;;;3.80;3.50;;;;;;;21.48;100.00;100376.16;4984936;28;20215;-77
2023/08/12 04:25:56;;;;;;;3.60;3.30;;;;;;;21.47;100.00;100384.16;4982523;28;20304;-78
2023/08/12 04:28:21;;;;;;;3.77;3.47;;;;;;;21.45;100.00;100373.72;4985068;28;20291;-77
2023/08/12 04:30:48;;;;;;;3.83;3.53;;;;;;;21.46;100.00;100369.28;4985844;28;20921;-78
2023/08/12 04:33:21;;;;;;;3.80;3.47;;;;;;;21.45;100.00;100365.81;4989219;28;20232;-76
2023/08/12 04:35:46;;;;;;;4.07;3.77;;;;;;;21.45;100.00;100375.47;4981509;28;20279;-79
2023/08/12 04:38:11;;;;;;;4.07;3.77;;;;;;;21.47;100.00;100376.25;4987085;28;20256;-77
2023/08/12 04:40:40;;;;;;;4.13;3.83;;;;;;;21.47;100.00;100370.97;4988142;28;20217;-78
2023/08/12 04:43:06;;;;;;;4.60;4.20;;;;;;;21.47;100.00;100378.88;4984108;28;20209;-78
2023/08/12 04:45:32;;;;;;;5.10;3.63;;;;;;;21.46;100.00;100377.19;4991521;28;20569;-78
2023/08/12 04:48:00;;;;;;;3.40;3.10;;;;;;;21.47;100.00;100379.75;5008535;28;20205;-78
2023/08/12 04:50:29;;;;;;;3.97;3.67;;;;;;;21.50;100.00;100370.81;4992382;28;20188;-77
2023/08/12 04:52:54;;;;;;;3.47;3.20;;;;;;;21.52;100.00;100368.09;4990917;28;20220;-77
2023/08/12 04:55:19;;;;;;;3.80;3.50;;;;;;;21.55;100.00;100362.66;4996732;28;20884;-77
2023/08/12 04:57:45;;;;;;;4.00;3.70;;;;;;;21.55;100.00;100354.78;4991707;28;20180;-77
2023/08/12 05:00:10;;;;;;;4.20;3.90;;;;;;;21.55;100.00;100357.41;4988256;28;20243;-76
2023/08/12 05:02:36;;;;;;;4.43;3.97;;;;;;;21.54;100.00;100351.31;5003157;28;20267;-77
2023/08/12 05:05:01;;;;;;;4.20;3.90;;;;;;;21.55;100.00;100344.25;5003780;28;20201;-77
2023/08/12 05:07:27;;;;;;;4.40;4.00;;;;;;;21.55;100.00;100347.75;4991319;28;20197;-77
2023/08/12 05:09:52;;;;;;;3.90;3.60;;;;;;;21.58;100.00;100360.72;4987888;28;20189;-78
2023/08/12 05:12:17;;;;;;;3.83;3.53;;;;;;;21.59;100.00;100362.41;4988028;28;20228;-78
2023/08/12 05:14:43;;;;;;;3.70;3.40;;;;;;;21.63;100.00;100357.84;4988406;28;20194;-77
2023/08/12 05:17:08;;;;;;;3.87;3.57;;;;;;;21.66;100.00;100352.44;4984055;28;20189;-77
2023/08/12 05:19:34;;;;;;;3.70;3.40;;;;;;;21.71;100.00;100357.44;4986499;28;20184;-78
2023/08/12 05:21:59;;;;;;;3.33;3.13;;;;;;;21.74;100.00;100362.56;4988521;28;20205;-77
2023/08/12 05:24:24;;;;;;;3.93;3.63;;;;;;;21.78;100.00;100358.81;4984992;28;20185;-77
2023/08/12 05:26:50;;;;;;;3.60;3.30;;;;;;;21.86;100.00;100361.88;4987075;28;20267;-78
2023/08/12 05:29:15;;;;;;;3.73;3.43;;;;;;;21.95;100.00;100368.41;4982620;28;20220;-78
2023/08/12 05:31:40;;;;;;;4.33;3.67;;;;;;;21.99;100.00;100372.59;4979986;28;20207;-79
2023/08/12 05:34:06;;;;;;;3.77;3.47;;;;;;;22.03;100.00;100365.34;4983071;28;20196;-77
2023/08/12 05:36:31;;;;;;;3.77;3.47;;;;;;;22.06;100.00;100357.28;4995062;28;20275;-78
2023/08/12 05:38:57;;;;;;;3.70;3.40;;;;;;;22.06;100.00;100362.56;5001839;28;20184;-79
2023/08/12 05:41:22;;;;;;;3.70;3.40;;;;;;;22.12;100.00;100366.63;5020243;28;20783;-79
2023/08/12 05:43:48;;;;;;;4.00;3.70;;;;;;;22.21;100.00;100372.22;5001078;28;20210;-79
2023/08/12 05:46:14;;;;;;;3.70;3.40;;;;;;;22.29;100.00;100377.06;4997436;28;20872;-79
2023/08/12 05:48:42;;;;;;;3.63;3.33;;;;;;;22.37;100.00;100382.78;4987158;28;20201;-79
2023/08/12 05:51:07;;;;;;;3.73;3.43;;;;;;;22.46;100.00;100370.03;4998826;28;20264;-79
2023/08/12 05:53:35;;;;;;;3.70;3.40;;;;;;;22.53;100.00;100369.56;4996114;28;20301;-79
2023/08/12 05:56:00;;;;;;;3.80;3.50;;;;;;;22.66;100.00;100374.13;4993751;28;20300;-80
2023/08/12 05:58:26;;;;;;;4.67;3.87;;;;;;;22.76;100.00;100377.09;4996870;28;20283;-79
2023/08/12 06:00:51;;;;;;;4.73;4.30;;;;;;;22.84;100.00;100385.38;4982702;28;20217;-79
2023/08/12 06:03:17;;;;;;;3.83;3.53;;;;;;;23.01;100.00;100392.31;4983016;28;20221;-80
2023/08/12 06:05:45;;;;;;;4.37;3.93;;;;;;;23.29;100.00;100394.16;5013423;28;20580;-80
2023/08/12 06:08:10;;;;;;;4.13;3.50;;;;;;;23.51;100.00;100379.66;4999469;28;20209;-78
2023/08/12 06:10:36;;;;;;;4.23;3.93;;;;;;;23.81;100.00;100391.06;4998933;28;20188;-79
2023/08/12 06:13:01;;;;;;;4.67;4.27;;;;;;;24.00;100.00;100388.94;5008310;28;20291;-79
2023/08/12 06:15:26;;;;;;;4.13;3.77;;;;;;;24.08;100.00;100393.75;4994752;28;20209;-79
2023/08/12 06:17:52;;;;;;;4.50;4.10;;;;;;;24.15;100.00;100387.13;4986279;28;20209;-79
2023/08/12 06:20:17;;;;;;;3.90;3.60;;;;;;;24.23;100.00;100391.06;4998724;28;20268;-77
2023/08/12 06:22:42;;;;;;;4.50;3.97;;;;;;;24.39;100.00;100396.22;4988962;28;20204;-78
2023/08/12 06:25:08;;;;;;;3.90;3.60;;;;;;;24.91;100.00;100370.75;4982857;28;20240;-79
2023/08/12 06:27:33;;;;;;;3.87;3.57;;;;;;;25.37;100.00;100372.00;4993794;28;20574;-80
2023/08/12 06:29:59;;;;;;;4.30;3.90;;;;;;;25.67;100.00;100374.34;4988290;28;20276;-78
2023/08/12 06:32:24;;;;;;;4.70;3.60;;;;;;;25.74;100.00;100381.81;4987433;28;20260;-78
2023/08/12 06:34:49;;;;;;;4.20;3.87;;;;;;;25.61;100.00;100379.22;4989470;28;20229;-76
2023/08/12 06:37:15;;;;;;;5.23;3.77;;;;;;;25.44;100.00;100375.97;4983889;28;20328;-77
2023/08/12 06:39:40;;;;;;;4.40;3.87;;;;;;;25.29;100.00;100379.66;4986706;28;20568;-79
2023/08/12 06:42:05;;;;;;;4.23;3.93;;;;;;;25.22;100.00;100374.78;4985741;28;20208;-77
2023/08/12 06:44:31;;;;;;;4.53;4.03;;;;;;;25.19;100.00;100368.84;4984482;28;20548;-77
2023/08/12 06:46:56;;;;;;;3.97;3.67;;;;;;;25.19;100.00;100371.50;5000467;28;20196;-78
2023/08/12 06:49:21;;;;;;;4.40;4.00;;;;;;;25.21;100.00;100373.06;4984963;28;20216;-76
2023/08/12 06:51:47;;;;;;;4.07;3.77;;;;;;;25.25;100.00;100377.22;4994535;28;20204;-79
2023/08/12 06:54:12;;;;;;;4.20;3.90;;;;;;;25.25;100.00;100369.25;5001906;28;20184;-77
2023/08/12 06:56:40;;;;;;;4.10;3.67;;;;;;;25.23;100.00;100371.16;5001323;28;20182;-78
2023/08/12 06:59:05;;;;;;;5.03;4.10;;;;;;;25.28;100.00;100362.91;5009277;28;20180;-76
2023/08/12 07:01:31;;;;;;;4.13;3.83;;;;;;;25.40;100.00;100375.31;4991634;28;20212;-77
2023/08/12 07:03:59;;;;;;;4.03;3.70;;;;;;;25.66;100.00;100377.94;4989432;28;20280;-76
2023/08/12 07:06:24;;;;;;;4.33;3.93;;;;;;;26.22;100.00;100371.31;4990583;28;20200;-76
2023/08/12 07:08:50;;;;;;;4.00;3.70;;;;;;;26.37;98.67;100376.44;5005760;28;20196;-77
2023/08/12 07:11:15;;;;;;;4.03;3.60;;;;;;;26.47;97.92;100378.28;4988815;28;20554;-77
2023/08/12 07:13:42;;;;;;;3.57;3.30;;;;;;;26.74;97.42;100377.16;5000997;28;20613;-76
2023/08/12 07:16:08;;;;;;;3.85;3.60;;;;;;;27.15;96.13;100384.78;4988840;28;20189;-77
2023/08/12 07:18:33;;;;;;;5.03;4.22;;;;;;;27.62;93.44;100385.50;5002675;28;20656;-78
2023/08/12 07:20:59;;;;;;;3.80;3.50;;;;;;;28.29;91.21;100381.06;5017119;28;20320;-76
2023/08/12 07:23:25;;;;;;;3.80;3.50;;;;;;;28.68;90.42;100374.34;4988070;28;20204;-76
2023/08/12 07:25:50;;;;;;;4.13;3.83;;;;;;;29.32;86.93;100364.50;4995221;28;20633;-79
2023/08/12 07:28:15;;;;;;;3.92;3.63;;;;;;;29.65;86.17;100362.53;4988881;28;20569;-78
2023/08/12 07:30:44;;;;;;;3.53;3.20;;;;;;;29.81;85.47;100362.84;4985136;28;20193;-78
2023/08/12 07:33:09;;;;;;;4.30;3.90;;;;;;;29.63;84.22;100364.47;4985187;28;20216;-78
2023/08/12 07:35:35;;;;;;;4.88;4.03;;;;;;;29.40;85.44;100364.72;4986238;28;20185;-76
2023/08/12 07:38:00;;;;;;;4.53;3.90;;;;;;;29.64;86.08;100369.69;4986914;28;20182;-77
2023/08/12 07:40:26;;;;;;;5.72;4.15;;;;;;;29.61;85.75;100367.31;4983045;28;20189;-77
2023/08/12 07:42:51;;;;;;;6.47;4.10;;;;;;;30.12;83.65;100367.25;4982156;28;20213;-77
2023/08/12 07:45:16;;;;;;;4.18;3.78;;;;;;;30.25;83.26;100367.00;4989172;28;20188;-77
2023/08/12 07:47:41;;;;;;;3.90;3.38;;;;;;;30.72;82.01;100355.59;4999889;28;20262;-78
2023/08/12 07:50:07;;;;;;;3.28;3.08;;;;;;;31.07;81.65;100355.94;4985418;28;20643;-79
2023/08/12 07:52:33;;;;;;;4.15;3.85;;;;;;;31.30;80.69;100356.44;4984363;28;20235;-78
2023/08/12 07:54:58;;;;;;;3.60;3.30;;;;;;;30.99;81.03;100357.50;4986490;28;20735;-77
2023/08/12 07:57:24;;;;;;;3.63;3.35;;;;;;;31.10;80.85;100356.50;4984127;28;20181;-78
2023/08/12 07:59:53;;;;;;;4.43;4.05;;;;;;;30.66;82.14;100353.50;4988592;28;20220;-79
2023/08/12 08:02:18;;;;;;;4.28;3.88;;;;;;;30.57;83.10;100349.88;4989655;28;20287;-78
2023/08/12 08:04:44;;;;;;;4.20;3.90;;;;;;;30.88;81.95;100344.31;4988007;28;20917;-78
2023/08/12 08:07:10;;;;;;;6.75;3.97;;;;;;;30.89;82.04;100346.00;4992479;28;20284;-79
2023/08/12 08:09:36;;;;;;;3.95;3.60;;;;;;;30.89;82.05;100343.34;4996074;28;20209;-80
2023/08/12 08:12:01;;;;;;;3.80;3.40;;;;;;;30.97;82.50;100346.13;4990151;28;20351;-77
2023/08/12 08:14:27;;;;;;;4.13;3.20;;;;;;;31.06;82.34;100340.91;4987577;28;20311;-77
2023/08/12 08:16:53;;;;;;;7.80;3.88;;;;;;;30.96;83.18;100343.59;4984306;28;20687;-78
2023/08/12 08:19:18;;;;;;;4.22;3.67;;;;;;;31.07;82.11;100343.41;5001574;28;20903;-77
2023/08/12 08:21:44;;;;;;;4.57;3.58;;;;;;;30.89;82.84;100340.66;4983526;28;20967;-83
2023/08/12 08:24:12;;;;;;;4.03;3.72;;;;;;;31.03;82.59;100347.34;5000639;28;21479;-79
2023/08/12 08:26:38;;;;;;;4.07;3.53;;;;;;;30.98;81.84;100336.28;4987614;28;20974;-78
2023/08/12 08:29:04;;;;;;;4.50;4.05;;;;;;;30.74;81.99;100334.09;4984420;28;20204;-76
2023/08/12 08:31:29;;;;;;;4.22;3.80;;;;;;;30.78;82.17;100336.34;4985875;28;20201;-78
2023/08/12 08:33:55;;;;;;;4.90;3.70;;;;;;;30.47;82.15;100338.34;4982476;28;20200;-77
2023/08/12 08:36:20;;;;;;;4.72;3.75;;;;;;;30.06;82.83;100338.47;4983893;28;20201;-78
2023/08/12 08:38:45;;;;;;;4.40;4.00;;;;;;;29.96;83.82;100341.97;4992750;28;20231;-79
2023/08/12 08:41:11;;;;;;;4.68;4.30;;;;;;;30.37;80.10;100328.50;4985475;28;20196;-76
2023/08/12 08:43:39;;;;;;;4.40;4.00;;;;;;;30.03;81.73;100323.56;5001689;28;20204;-79
2023/08/12 08:46:05;;;;;;;4.35;3.95;;;;;;;29.92;82.10;100334.34;4984637;28;20686;-79
2023/08/12 08:48:32;;;;;;;4.10;3.80;;;;;;;29.75;82.75;100341.22;4989119;28;20201;-78
2023/08/12 08:51:00;;;;;;;4.25;3.95;;;;;;;29.72;83.92;100342.34;4984393;28;20208;-78
2023/08/12 08:53:25;;;;;;;4.50;4.10;;;;;;;29.77;83.42;100340.09;4986385;28;20209;-78
2023/08/12 08:55:52;;;;;;;8.35;4.28;;;;;;;29.83;84.05;100335.19;4986048;28;20232;-76
2023/08/12 08:58:18;;;;;;;6.15;4.40;;;;;;;29.87;84.58;100339.28;4981726;28;20202;-79
2023/08/12 09:00:43;;;;;;;4.65;4.15;;;;;;;29.88;84.44;100339.13;4983169;28;20216;-79
2023/08/12 09:03:10;;;;;;;4.40;4.00;;;;;;;29.65;85.34;100336.69;4985686;28;20205;-77
2023/08/12 09:05:36;;;;;;;4.60;4.20;;;;;;;29.86;84.99;100337.59;4986626;28;20193;-77
2023/08/12 09:08:06;;;;;;;4.28;3.90;;;;;;;30.07;84.39;100338.34;4985469;28;20202;-80
2023/08/12 09:10:32;;;;;;;4.32;4.03;;;;;;;30.13;84.65;100326.25;4977215;28;20257;-79
2023/08/12 09:12:58;;;;;;;4.32;3.92;;;;;;;30.22;83.46;100316.56;5001570;28;20656;-77
2023/08/12 09:15:24;;;;;;;4.55;4.15;;;;;;;30.25;82.93;100329.63;4986212;28;20216;-78
2023/08/12 09:17:49;;;;;;;4.90;4.50;;;;;;;30.27;82.25;100346.34;4990578;28;20277;-79
2023/08/12 09:20:14;;;;;;;4.88;4.15;;;;;;;30.42;81.91;100350.28;4987931;28;20230;-77
2023/08/12 09:22:41;;;;;;;4.10;3.70;;;;;;;30.49;81.55;100358.56;4986054;28;20247;-78
2023/08/12 09:25:08;;;;;;;5.30;3.78;;;;;;;30.55;81.26;100362.53;4988858;28;20660;-77
2023/08/12 09:27:36;;;;;;;5.00;4.30;;;;;;;30.35;81.64;100359.00;5001192;28;20279;-78
2023/08/12 09:30:03;;;;;;;4.65;4.15;;;;;;;30.24;82.83;100358.16;4986595;28;20193;-77
2023/08/12 09:32:29;;;;;;;4.72;4.32;;;;;;;30.32;83.86;100346.78;4989118;28;20209;-76
2023/08/12 09:34:57;;;;;;;4.85;4.25;;;;;;;30.41;84.40;100345.91;4985618;28;20544;-79
2023/08/12 09:37:24;;;;;;;4.65;4.10;;;;;;;30.24;84.31;100341.28;4986309;28;20188;-77
2023/08/12 09:39:51;;;;;;;4.22;3.83;;;;;;;30.34;84.27;100343.97;4982595;28;20242;-77
2023/08/12 09:42:17;;;;;;;4.80;4.07;;;;;;;30.48;83.23;100342.69;4979993;28;20204;-75
2023/08/12 09:44:43;;;;;;;4.75;3.85;;;;;;;30.55;82.33;100344.66;4981520;28;20205;-77
2023/08/12 09:47:09;;;;;;;3.80;3.50;;;;;;;30.73;81.55;100335.91;4988125;28;20185;-78
2023/08/12 09:49:35;;;;;;;4.05;3.55;;;;;;;30.86;81.10;100332.94;4986972;28;20298;-78
2023/08/12 09:52:02;;;;;;;4.20;3.90;;;;;;;30.68;82.06;100332.84;5000557;28;20220;-78
2023/08/12 09:54:28;;;;;;;4.57;4.05;;;;;;;30.49;81.83;100325.66;4986092;28;20204;-78
2023/08/12 09:56:58;;;;;;;4.13;3.72;;;;;;;30.47;82.25;100328.47;4984564;28;20193;-78
2023/08/12 09:59:26;;;;;;;5.30;4.18;;;;;;;30.37;83.61;100331.16;4989500;28;20391;-77
2023/08/12 10:01:53;;;;;;;5.18;4.78;;;;;;;30.53;83.75;100329.75;4990777;28;20226;-79
2023/08/12 10:04:22;;;;;;;4.00;3.70;;;;;;;30.48;84.18;100329.34;4983764;28;20186;-79
2023/08/12 10:06:48;;;;;;;4.45;4.13;;;;;;;30.56;83.28;100333.00;4991248;28;20205;-80
2023/08/12 10:09:15;;;;;;;4.78;4.07;;;;;;;30.41;83.53;100337.91;4995819;28;20225;-78
2023/08/12 10:11:43;;;;;;;4.30;4.00;;;;;;;30.42;83.12;100339.59;4995529;28;20225;-78
2023/08/12 10:14:10;;;;;;;4.70;3.88;;;;;;;30.45;84.09;100343.81;4986486;28;20177;-78
2023/08/12 10:16:36;;;;;;;5.80;3.90;;;;;;;30.54;83.62;100342.09;4987511;28;20185;-78
2023/08/12 10:19:04;;;;;;;4.35;3.88;;;;;;;30.54;84.87;100334.97;4995959;28;20193;-78
2023/08/12 10:21:32;;;;;;;4.05;3.75;;;;;;;30.71;83.94;100335.22;4989738;28;20205;-79
2023/08/12 10:23:58;;;;;;;4.95;4.55;;;;;;;30.84;83.96;100333.09;4992593;28;20199;-78
2023/08/12 10:26:27;;;;;;;4.80;4.43;;;;;;;30.96;83.77;100341.75;4990732;28;20185;-79
2023/08/12 10:28:54;;;;;;;4.20;3.90;;;;;;;31.08;83.36;100352.28;4985339;28;20210;-79
2023/08/12 10:31:20;;;;;;;4.55;4.03;;;;;;;31.15;81.99;100345.38;4987267;28;20194;-78
2023/08/12 10:33:49;;;;;;;4.25;3.90;;;;;;;31.34;81.69;100355.13;4992427;28;20192;-80
2023/08/12 10:36:15;;;;;;;4.55;3.50;;;;;;;31.51;79.68;100352.66;4991647;28;20186;-79
2023/08/12 10:38:41;;;;;;;3.90;3.60;;;;;;;31.61;77.82;100359.66;4986276;28;20244;-76
2023/08/12 10:41:23;;;;;;;3.20;3.00;;;;;;;31.77;76.66;100367.03;4989070;28;20615;-80
2023/08/12 10:43:55;;;;;;;3.67;3.38;;;;;;;31.68;76.35;100381.31;4987625;28;20192;-81
2023/08/12 10:46:36;;;;;;;4.30;3.92;;;;;;;31.35;77.21;100391.59;4999312;28;20230;-77
2023/08/12 10:49:10;;;;;;;5.00;3.30;;;;;;;30.92;77.57;100388.47;4991079;28;20216;-78
2023/08/12 10:51:46;;;;;;;4.78;4.13;;;;;;;30.46;79.17;100404.22;4984017;28;20233;-78
2023/08/12 10:54:33;;;;;;;4.65;3.88;;;;;;;29.95;83.87;100401.63;5001027;28;20208;-79
2023/08/12 10:57:01;;;;;;;8.38;5.05;;;;;;;29.13;98.87;100398.06;4994975;28;20279;-81
2023/08/12 10:59:45;;;;;;;8.00;5.17;;;;;;;28.02;100.00;100372.66;4992730;28;21005;-78
2023/08/12 11:02:25;;;;;;;6.23;5.00;;;;;;;27.51;100.00;100377.56;4990837;28;20320;-80
2023/08/12 11:04:55;;;;;;;5.27;4.30;;;;;;;27.17;100.00;100361.56;5001990;28;20231;-78
2023/08/12 11:07:26;;;;;;;3.87;3.57;;;;;;;26.97;100.00;100350.72;4992405;28;20196;-79
2023/08/12 11:09:52;;;;;;;4.90;4.50;;;;;;;26.88;100.00;100348.75;4988484;28;20703;-79
2023/08/12 11:12:26;;;;;;;4.47;4.07;;;;;;;27.02;100.00;100345.03;4993017;28;20212;-79
2023/08/12 11:14:58;;;;;;;4.73;4.27;;;;;;;27.39;100.00;100363.38;4992981;28;20188;-79
2023/08/12 11:17:39;;;;;;;5.00;4.00;;;;;;;27.98;100.00;100353.44;4992110;28;20213;-79